sensor_id;sensor_type;location;lat;lon;timestamp;temperature;humidity
7218;DHT22;3650;53.580;10.094;2022-08-16T00:02:08;23.50;91.30
7218;DHT22;3650;53.580;10.094;2022-08-16T00:04:35;23.50;91.40
7218;DHT22;3650;53.580;10.094;2022-08-16T00:07:02;23.50;91.40
7218;DHT22;3650;53.580;10.094;2022-08-16T00:09:29;23.50;91.40
7218;DHT22;3650;53.580;10.094;2022-08-16T00:11:56;23.50;91.30
7218;DHT22;3650;53.580;10.094;2022-08-16T00:14:25;23.50;91.30
7218;DHT22;3650;53.580;10.094;2022-08-16T00:16:53;23.50;91.30
7218;DHT22;3650;53.580;10.094;2022-08-16T00:19:26;23.50;91.30
7218;DHT22;3650;53.580;10.094;2022-08-16T00:21:54;23.40;91.20
7218;DHT22;3650;53.580;10.094;2022-08-16T00:24:21;23.40;91.30
7218;DHT22;3650;53.580;10.094;2022-08-16T00:26:48;23.40;91.20
7218;DHT22;3650;53.580;10.094;2022-08-16T00:29:15;23.40;91.20
7218;DHT22;3650;53.580;10.094;2022-08-16T00:31:43;23.40;91.30
7218;DHT22;3650;53.580;10.094;2022-08-16T00:34:11;23.40;91.40
7218;DHT22;3650;53.580;10.094;2022-08-16T00:36:39;23.40;91.40
7218;DHT22;3650;53.580;10.094;2022-08-16T00:39:06;23.30;91.50
7218;DHT22;3650;53.580;10.094;2022-08-16T00:41:33;23.40;91.40
7218;DHT22;3650;53.580;10.094;2022-08-16T00:44:02;23.30;91.40
7218;DHT22;3650;53.580;10.094;2022-08-16T00:46:38;23.30;91.50
7218;DHT22;3650;53.580;10.094;2022-08-16T00:49:08;23.30;91.40
7218;DHT22;3650;53.580;10.094;2022-08-16T00:51:36;23.30;91.30
7218;DHT22;3650;53.580;10.094;2022-08-16T00:54:05;23.20;91.60
7218;DHT22;3650;53.580;10.094;2022-08-16T00:56:36;23.20;91.80
7218;DHT22;3650;53.580;10.094;2022-08-16T00:59:04;23.20;91.90
7218;DHT22;3650;53.580;10.094;2022-08-16T01:01:31;23.10;91.60
7218;DHT22;3650;53.580;10.094;2022-08-16T01:03:59;23.20;91.80
7218;DHT22;3650;53.580;10.094;2022-08-16T01:06:26;23.20;91.80
7218;DHT22;3650;53.580;10.094;2022-08-16T01:08:55;23.10;91.80
7218;DHT22;3650;53.580;10.094;2022-08-16T01:11:25;23.10;91.80
7218;DHT22;3650;53.580;10.094;2022-08-16T01:13:57;23.10;91.80
7218;DHT22;3650;53.580;10.094;2022-08-16T01:16:26;23.10;91.80
7218;DHT22;3650;53.580;10.094;2022-08-16T01:18:57;23.10;91.80
7218;DHT22;3650;53.580;10.094;2022-08-16T01:21:33;23.20;91.80
7218;DHT22;3650;53.580;10.094;2022-08-16T01:24:12;23.20;91.60
7218;DHT22;3650;53.580;10.094;2022-08-16T01:26:43;23.10;91.70
7218;DHT22;3650;53.580;10.094;2022-08-16T01:29:13;23.10;91.70
7218;DHT22;3650;53.580;10.094;2022-08-16T01:31:41;23.10;91.60
7218;DHT22;3650;53.580;10.094;2022-08-16T01:34:09;23.10;91.70
7218;DHT22;3650;53.580;10.094;2022-08-16T01:36:36;23.10;91.80
7218;DHT22;3650;53.580;10.094;2022-08-16T01:39:10;23.10;91.80
7218;DHT22;3650;53.580;10.094;2022-08-16T01:41:37;23.10;91.80
7218;DHT22;3650;53.580;10.094;2022-08-16T01:44:05;23.10;91.80
7218;DHT22;3650;53.580;10.094;2022-08-16T01:46:34;23.10;91.80
7218;DHT22;3650;53.580;10.094;2022-08-16T01:49:05;23.10;91.80
7218;DHT22;3650;53.580;10.094;2022-08-16T01:51:35;23.10;91.80
7218;DHT22;3650;53.580;10.094;2022-08-16T01:54:02;23.10;91.80
7218;DHT22;3650;53.580;10.094;2022-08-16T01:56:31;23.10;91.80
7218;DHT22;3650;53.580;10.094;2022-08-16T01:59:00;23.00;91.80
7218;DHT22;3650;53.580;10.094;2022-08-16T02:01:28;23.00;91.70
7218;DHT22;3650;53.580;10.094;2022-08-16T02:03:56;23.00;91.80
7218;DHT22;3650;53.580;10.094;2022-08-16T02:06:23;23.00;91.80
7218;DHT22;3650;53.580;10.094;2022-08-16T02:08:50;23.00;91.60
7218;DHT22;3650;53.580;10.094;2022-08-16T02:11:20;22.80;91.70
7218;DHT22;3650;53.580;10.094;2022-08-16T02:13:49;22.70;92.30
7218;DHT22;3650;53.580;10.094;2022-08-16T02:16:16;22.70;92.40
7218;DHT22;3650;53.580;10.094;2022-08-16T02:18:43;22.60;92.80
7218;DHT22;3650;53.580;10.094;2022-08-16T02:21:10;22.50;93.50
7218;DHT22;3650;53.580;10.094;2022-08-16T02:23:37;22.50;94.00
7218;DHT22;3650;53.580;10.094;2022-08-16T02:26:05;22.50;94.10
7218;DHT22;3650;53.580;10.094;2022-08-16T02:28:32;22.40;94.10
7218;DHT22;3650;53.580;10.094;2022-08-16T02:31:03;22.40;93.90
7218;DHT22;3650;53.580;10.094;2022-08-16T02:33:30;22.30;94.10
7218;DHT22;3650;53.580;10.094;2022-08-16T02:35:57;22.30;94.30
7218;DHT22;3650;53.580;10.094;2022-08-16T02:38:24;22.20;94.90
7218;DHT22;3650;53.580;10.094;2022-08-16T02:40:51;22.20;95.10
7218;DHT22;3650;53.580;10.094;2022-08-16T02:43:18;22.20;95.10
7218;DHT22;3650;53.580;10.094;2022-08-16T02:45:45;22.30;95.10
7218;DHT22;3650;53.580;10.094;2022-08-16T02:48:13;22.20;95.10
7218;DHT22;3650;53.580;10.094;2022-08-16T02:50:39;22.20;95.30
7218;DHT22;3650;53.580;10.094;2022-08-16T02:53:07;22.20;95.10
7218;DHT22;3650;53.580;10.094;2022-08-16T02:55:33;22.20;95.10
7218;DHT22;3650;53.580;10.094;2022-08-16T02:58:00;22.10;95.00
7218;DHT22;3650;53.580;10.094;2022-08-16T03:00:27;22.10;95.20
7218;DHT22;3650;53.580;10.094;2022-08-16T03:02:54;22.10;95.60
7218;DHT22;3650;53.580;10.094;2022-08-16T03:05:23;22.10;95.80
7218;DHT22;3650;53.580;10.094;2022-08-16T03:07:50;22.10;95.80
7218;DHT22;3650;53.580;10.094;2022-08-16T03:10:17;22.10;96.00
7218;DHT22;3650;53.580;10.094;2022-08-16T03:12:44;22.10;96.10
7218;DHT22;3650;53.580;10.094;2022-08-16T03:15:12;22.10;96.10
7218;DHT22;3650;53.580;10.094;2022-08-16T03:17:40;22.10;95.90
7218;DHT22;3650;53.580;10.094;2022-08-16T03:20:09;22.10;96.00
7218;DHT22;3650;53.580;10.094;2022-08-16T03:22:38;22.10;96.00
7218;DHT22;3650;53.580;10.094;2022-08-16T03:25:07;22.10;96.10
7218;DHT22;3650;53.580;10.094;2022-08-16T03:27:35;22.10;96.20
7218;DHT22;3650;53.580;10.094;2022-08-16T03:30:09;22.10;96.30
7218;DHT22;3650;53.580;10.094;2022-08-16T03:32:36;22.10;96.30
7218;DHT22;3650;53.580;10.094;2022-08-16T03:35:04;22.10;96.20
7218;DHT22;3650;53.580;10.094;2022-08-16T03:37:31;22.10;96.20
7218;DHT22;3650;53.580;10.094;2022-08-16T03:39:59;22.10;96.00
7218;DHT22;3650;53.580;10.094;2022-08-16T03:42:27;22.00;95.70
7218;DHT22;3650;53.580;10.094;2022-08-16T03:44:54;22.00;95.60
7218;DHT22;3650;53.580;10.094;2022-08-16T03:47:20;22.00;95.50
7218;DHT22;3650;53.580;10.094;2022-08-16T03:49:47;21.90;95.90
7218;DHT22;3650;53.580;10.094;2022-08-16T03:52:14;21.90;96.20
7218;DHT22;3650;53.580;10.094;2022-08-16T03:54:41;21.90;96.40
7218;DHT22;3650;53.580;10.094;2022-08-16T03:57:09;21.90;96.50
7218;DHT22;3650;53.580;10.094;2022-08-16T03:59:36;21.90;96.80
7218;DHT22;3650;53.580;10.094;2022-08-16T04:02:03;21.90;96.80
7218;DHT22;3650;53.580;10.094;2022-08-16T04:04:31;21.90;96.50
7218;DHT22;3650;53.580;10.094;2022-08-16T04:06:58;21.90;96.80
7218;DHT22;3650;53.580;10.094;2022-08-16T04:09:25;21.80;96.50
7218;DHT22;3650;53.580;10.094;2022-08-16T04:11:52;21.80;97.50
7218;DHT22;3650;53.580;10.094;2022-08-16T04:14:20;21.80;98.20
7218;DHT22;3650;53.580;10.094;2022-08-16T04:16:47;21.70;97.70
7218;DHT22;3650;53.580;10.094;2022-08-16T04:19:14;21.70;97.80
7218;DHT22;3650;53.580;10.094;2022-08-16T04:21:40;21.60;97.60
7218;DHT22;3650;53.580;10.094;2022-08-16T04:24:08;21.60;98.40
7218;DHT22;3650;53.580;10.094;2022-08-16T04:26:34;21.60;98.90
7218;DHT22;3650;53.580;10.094;2022-08-16T04:29:02;21.60;99.40
7218;DHT22;3650;53.580;10.094;2022-08-16T04:31:30;21.60;99.60
7218;DHT22;3650;53.580;10.094;2022-08-16T04:33:58;21.70;99.30
7218;DHT22;3650;53.580;10.094;2022-08-16T04:36:25;21.70;99.10
7218;DHT22;3650;53.580;10.094;2022-08-16T04:38:54;21.80;98.90
7218;DHT22;3650;53.580;10.094;2022-08-16T04:41:22;21.70;98.60
7218;DHT22;3650;53.580;10.094;2022-08-16T04:43:49;21.80;98.70
7218;DHT22;3650;53.580;10.094;2022-08-16T04:46:16;21.80;98.80
7218;DHT22;3650;53.580;10.094;2022-08-16T04:48:44;21.80;98.60
7218;DHT22;3650;53.580;10.094;2022-08-16T04:51:11;21.90;98.40
7218;DHT22;3650;53.580;10.094;2022-08-16T04:53:40;21.90;98.40
7218;DHT22;3650;53.580;10.094;2022-08-16T04:56:07;21.90;98.50
7218;DHT22;3650;53.580;10.094;2022-08-16T04:58:34;22.00;98.40
7218;DHT22;3650;53.580;10.094;2022-08-16T05:01:01;21.90;98.40
7218;DHT22;3650;53.580;10.094;2022-08-16T05:03:28;22.00;98.20
7218;DHT22;3650;53.580;10.094;2022-08-16T05:05:56;22.10;98.10
7218;DHT22;3650;53.580;10.094;2022-08-16T05:08:24;22.10;98.00
7218;DHT22;3650;53.580;10.094;2022-08-16T05:10:52;22.10;97.80
7218;DHT22;3650;53.580;10.094;2022-08-16T05:13:19;22.10;97.60
7218;DHT22;3650;53.580;10.094;2022-08-16T05:15:46;22.20;97.30
7218;DHT22;3650;53.580;10.094;2022-08-16T05:18:13;22.20;97.20
7218;DHT22;3650;53.580;10.094;2022-08-16T05:20:40;22.30;97.00
7218;DHT22;3650;53.580;10.094;2022-08-16T05:23:08;22.30;97.10
7218;DHT22;3650;53.580;10.094;2022-08-16T05:25:35;22.30;96.60
7218;DHT22;3650;53.580;10.094;2022-08-16T05:28:02;22.40;96.50
7218;DHT22;3650;53.580;10.094;2022-08-16T05:30:29;22.40;96.10
7218;DHT22;3650;53.580;10.094;2022-08-16T05:32:56;22.40;95.90
7218;DHT22;3650;53.580;10.094;2022-08-16T05:35:23;22.40;95.80
7218;DHT22;3650;53.580;10.094;2022-08-16T05:37:49;22.50;95.80
7218;DHT22;3650;53.580;10.094;2022-08-16T05:40:18;22.40;95.60
7218;DHT22;3650;53.580;10.094;2022-08-16T05:42:44;22.40;95.50
7218;DHT22;3650;53.580;10.094;2022-08-16T05:45:11;22.40;95.30
7218;DHT22;3650;53.580;10.094;2022-08-16T05:47:38;22.40;95.50
7218;DHT22;3650;53.580;10.094;2022-08-16T05:50:06;22.40;95.80
7218;DHT22;3650;53.580;10.094;2022-08-16T05:52:33;22.40;95.80
7218;DHT22;3650;53.580;10.094;2022-08-16T05:55:00;22.40;95.70
7218;DHT22;3650;53.580;10.094;2022-08-16T05:57:28;22.40;95.60
7218;DHT22;3650;53.580;10.094;2022-08-16T05:59:55;22.40;95.10
7218;DHT22;3650;53.580;10.094;2022-08-16T06:02:22;22.40;95.10
7218;DHT22;3650;53.580;10.094;2022-08-16T06:04:52;22.40;95.10
7218;DHT22;3650;53.580;10.094;2022-08-16T06:07:18;22.50;95.10
7218;DHT22;3650;53.580;10.094;2022-08-16T06:09:46;22.50;95.10
7218;DHT22;3650;53.580;10.094;2022-08-16T06:12:13;22.50;94.90
7218;DHT22;3650;53.580;10.094;2022-08-16T06:14:41;22.50;94.80
7218;DHT22;3650;53.580;10.094;2022-08-16T06:17:08;22.60;94.80
7218;DHT22;3650;53.580;10.094;2022-08-16T06:19:35;22.60;94.70
7218;DHT22;3650;53.580;10.094;2022-08-16T06:22:02;22.60;94.50
7218;DHT22;3650;53.580;10.094;2022-08-16T06:24:29;22.60;94.50
7218;DHT22;3650;53.580;10.094;2022-08-16T06:26:56;22.70;94.50
7218;DHT22;3650;53.580;10.094;2022-08-16T06:29:22;22.70;94.40
7218;DHT22;3650;53.580;10.094;2022-08-16T06:31:50;22.70;94.20
7218;DHT22;3650;53.580;10.094;2022-08-16T06:34:17;22.70;94.20
7218;DHT22;3650;53.580;10.094;2022-08-16T06:36:44;22.80;94.00
7218;DHT22;3650;53.580;10.094;2022-08-16T06:39:11;22.80;93.80
7218;DHT22;3650;53.580;10.094;2022-08-16T06:41:37;22.80;93.40
7218;DHT22;3650;53.580;10.094;2022-08-16T06:44:04;22.80;92.90
7218;DHT22;3650;53.580;10.094;2022-08-16T06:46:33;22.80;92.80
7218;DHT22;3650;53.580;10.094;2022-08-16T06:49:04;22.90;92.70
7218;DHT22;3650;53.580;10.094;2022-08-16T06:51:32;22.90;92.50
7218;DHT22;3650;53.580;10.094;2022-08-16T06:53:58;22.90;92.10
7218;DHT22;3650;53.580;10.094;2022-08-16T06:56:26;23.00;91.80
7218;DHT22;3650;53.580;10.094;2022-08-16T06:58:53;23.00;91.80
7218;DHT22;3650;53.580;10.094;2022-08-16T07:01:20;23.00;91.80
7218;DHT22;3650;53.580;10.094;2022-08-16T07:03:48;23.00;91.50
7218;DHT22;3650;53.580;10.094;2022-08-16T07:06:16;23.00;90.80
7218;DHT22;3650;53.580;10.094;2022-08-16T07:08:44;23.00;90.90
7218;DHT22;3650;53.580;10.094;2022-08-16T07:11:11;23.00;91.30
7218;DHT22;3650;53.580;10.094;2022-08-16T07:13:39;23.00;91.20
7218;DHT22;3650;53.580;10.094;2022-08-16T07:16:07;23.10;91.20
7218;DHT22;3650;53.580;10.094;2022-08-16T07:18:39;23.10;91.10
7218;DHT22;3650;53.580;10.094;2022-08-16T07:21:07;23.20;90.90
7218;DHT22;3650;53.580;10.094;2022-08-16T07:23:35;23.20;91.00
7218;DHT22;3650;53.580;10.094;2022-08-16T07:26:03;23.20;91.00
7218;DHT22;3650;53.580;10.094;2022-08-16T07:28:30;23.30;90.50
7218;DHT22;3650;53.580;10.094;2022-08-16T07:30:57;23.30;90.40
7218;DHT22;3650;53.580;10.094;2022-08-16T07:33:24;23.30;90.40
7218;DHT22;3650;53.580;10.094;2022-08-16T07:35:51;23.40;89.30
7218;DHT22;3650;53.580;10.094;2022-08-16T07:38:18;23.40;88.90
7218;DHT22;3650;53.580;10.094;2022-08-16T07:40:46;23.40;86.30
7218;DHT22;3650;53.580;10.094;2022-08-16T07:43:12;23.50;84.20
7218;DHT22;3650;53.580;10.094;2022-08-16T07:45:39;23.50;83.80
7218;DHT22;3650;53.580;10.094;2022-08-16T07:48:06;23.50;84.30
7218;DHT22;3650;53.580;10.094;2022-08-16T07:50:33;23.60;84.60
7218;DHT22;3650;53.580;10.094;2022-08-16T07:52:59;23.60;81.70
7218;DHT22;3650;53.580;10.094;2022-08-16T07:55:26;23.70;80.10
7218;DHT22;3650;53.580;10.094;2022-08-16T07:57:54;23.70;81.90
7218;DHT22;3650;53.580;10.094;2022-08-16T08:00:22;23.70;81.10
7218;DHT22;3650;53.580;10.094;2022-08-16T08:02:48;23.70;81.00
7218;DHT22;3650;53.580;10.094;2022-08-16T08:05:16;23.80;81.20
7218;DHT22;3650;53.580;10.094;2022-08-16T08:07:42;23.80;80.10
7218;DHT22;3650;53.580;10.094;2022-08-16T08:10:09;23.80;76.90
7218;DHT22;3650;53.580;10.094;2022-08-16T08:12:36;23.80;77.90
7218;DHT22;3650;53.580;10.094;2022-08-16T08:15:07;23.80;78.30
7218;DHT22;3650;53.580;10.094;2022-08-16T08:17:35;23.90;76.40
7218;DHT22;3650;53.580;10.094;2022-08-16T08:20:04;23.90;76.30
7218;DHT22;3650;53.580;10.094;2022-08-16T08:22:31;24.00;74.30
7218;DHT22;3650;53.580;10.094;2022-08-16T08:24:58;24.00;74.30
7218;DHT22;3650;53.580;10.094;2022-08-16T08:27:24;24.00;72.70
7218;DHT22;3650;53.580;10.094;2022-08-16T08:29:51;24.10;73.40
7218;DHT22;3650;53.580;10.094;2022-08-16T08:32:20;24.10;73.00
7218;DHT22;3650;53.580;10.094;2022-08-16T08:34:47;24.10;71.60
7218;DHT22;3650;53.580;10.094;2022-08-16T08:37:14;24.10;72.00
7218;DHT22;3650;53.580;10.094;2022-08-16T08:39:41;24.20;71.10
7218;DHT22;3650;53.580;10.094;2022-08-16T08:42:08;24.20;72.00
7218;DHT22;3650;53.580;10.094;2022-08-16T08:44:35;24.20;71.80
7218;DHT22;3650;53.580;10.094;2022-08-16T08:47:04;24.20;69.20
7218;DHT22;3650;53.580;10.094;2022-08-16T08:49:34;24.30;69.20
7218;DHT22;3650;53.580;10.094;2022-08-16T08:52:03;24.30;67.40
7218;DHT22;3650;53.580;10.094;2022-08-16T08:54:30;24.40;67.40
7218;DHT22;3650;53.580;10.094;2022-08-16T08:56:57;24.40;66.90
7218;DHT22;3650;53.580;10.094;2022-08-16T08:59:25;24.40;65.80
7218;DHT22;3650;53.580;10.094;2022-08-16T09:01:52;24.40;66.20
7218;DHT22;3650;53.580;10.094;2022-08-16T09:04:19;24.40;66.60
7218;DHT22;3650;53.580;10.094;2022-08-16T09:06:47;24.50;65.40
7218;DHT22;3650;53.580;10.094;2022-08-16T09:09:13;24.50;65.10
7218;DHT22;3650;53.580;10.094;2022-08-16T09:11:40;24.50;65.30
7218;DHT22;3650;53.580;10.094;2022-08-16T09:14:09;24.50;62.60
7218;DHT22;3650;53.580;10.094;2022-08-16T09:16:35;24.50;62.60
7218;DHT22;3650;53.580;10.094;2022-08-16T09:19:02;24.60;62.70
7218;DHT22;3650;53.580;10.094;2022-08-16T09:21:29;24.60;61.80
7218;DHT22;3650;53.580;10.094;2022-08-16T09:23:57;24.60;61.50
7218;DHT22;3650;53.580;10.094;2022-08-16T09:26:24;24.60;60.90
7218;DHT22;3650;53.580;10.094;2022-08-16T09:28:51;24.70;59.30
7218;DHT22;3650;53.580;10.094;2022-08-16T09:31:18;24.70;60.30
7218;DHT22;3650;53.580;10.094;2022-08-16T09:33:44;24.70;61.20
7218;DHT22;3650;53.580;10.094;2022-08-16T09:36:12;24.80;61.70
7218;DHT22;3650;53.580;10.094;2022-08-16T09:38:39;24.80;62.10
7218;DHT22;3650;53.580;10.094;2022-08-16T09:41:09;24.90;61.90
7218;DHT22;3650;53.580;10.094;2022-08-16T09:43:36;24.90;61.50
7218;DHT22;3650;53.580;10.094;2022-08-16T09:46:05;25.00;61.70
7218;DHT22;3650;53.580;10.094;2022-08-16T09:48:33;25.00;60.30
7218;DHT22;3650;53.580;10.094;2022-08-16T09:51:02;25.00;59.60
7218;DHT22;3650;53.580;10.094;2022-08-16T09:53:30;25.10;59.20
7218;DHT22;3650;53.580;10.094;2022-08-16T09:55:57;25.20;59.20
7218;DHT22;3650;53.580;10.094;2022-08-16T09:58:26;25.20;59.20
7218;DHT22;3650;53.580;10.094;2022-08-16T10:00:53;25.20;57.70
7218;DHT22;3650;53.580;10.094;2022-08-16T10:03:20;25.30;58.00
7218;DHT22;3650;53.580;10.094;2022-08-16T10:05:48;25.40;58.10
7218;DHT22;3650;53.580;10.094;2022-08-16T10:08:16;25.40;54.20
7218;DHT22;3650;53.580;10.094;2022-08-16T10:10:43;25.40;52.30
7218;DHT22;3650;53.580;10.094;2022-08-16T10:13:33;25.50;51.40
7218;DHT22;3650;53.580;10.094;2022-08-16T10:15:59;25.50;52.40
7218;DHT22;3650;53.580;10.094;2022-08-16T10:18:28;25.60;53.50
7218;DHT22;3650;53.580;10.094;2022-08-16T10:20:56;25.60;52.40
7218;DHT22;3650;53.580;10.094;2022-08-16T10:23:24;25.60;52.30
7218;DHT22;3650;53.580;10.094;2022-08-16T10:25:51;25.60;50.60
7218;DHT22;3650;53.580;10.094;2022-08-16T10:28:19;25.70;50.70
7218;DHT22;3650;53.580;10.094;2022-08-16T10:30:47;25.80;49.10
7218;DHT22;3650;53.580;10.094;2022-08-16T10:33:14;25.80;48.80
7218;DHT22;3650;53.580;10.094;2022-08-16T10:35:42;25.80;46.20
7218;DHT22;3650;53.580;10.094;2022-08-16T10:38:10;25.90;46.80
7218;DHT22;3650;53.580;10.094;2022-08-16T10:40:38;25.90;48.10
7218;DHT22;3650;53.580;10.094;2022-08-16T10:43:05;26.00;50.90
7218;DHT22;3650;53.580;10.094;2022-08-16T10:45:32;26.00;49.60
7218;DHT22;3650;53.580;10.094;2022-08-16T10:48:01;26.10;47.00
7218;DHT22;3650;53.580;10.094;2022-08-16T10:50:28;26.10;46.90
7218;DHT22;3650;53.580;10.094;2022-08-16T10:52:55;26.20;47.10
7218;DHT22;3650;53.580;10.094;2022-08-16T10:55:23;26.20;46.70
7218;DHT22;3650;53.580;10.094;2022-08-16T10:57:50;26.30;46.60
7218;DHT22;3650;53.580;10.094;2022-08-16T11:00:19;26.40;45.40
7218;DHT22;3650;53.580;10.094;2022-08-16T11:02:46;26.40;44.70
7218;DHT22;3650;53.580;10.094;2022-08-16T11:05:15;26.50;45.10
7218;DHT22;3650;53.580;10.094;2022-08-16T11:07:44;26.60;45.10
7218;DHT22;3650;53.580;10.094;2022-08-16T11:10:12;26.60;45.30
7218;DHT22;3650;53.580;10.094;2022-08-16T11:12:40;26.70;45.50
7218;DHT22;3650;53.580;10.094;2022-08-16T11:15:07;26.80;44.60
7218;DHT22;3650;53.580;10.094;2022-08-16T11:17:34;26.80;44.00
7218;DHT22;3650;53.580;10.094;2022-08-16T11:20:01;26.80;43.90
7218;DHT22;3650;53.580;10.094;2022-08-16T11:22:29;26.80;44.00
7218;DHT22;3650;53.580;10.094;2022-08-16T11:24:56;26.80;44.20
7218;DHT22;3650;53.580;10.094;2022-08-16T11:27:23;26.80;44.40
7218;DHT22;3650;53.580;10.094;2022-08-16T11:29:52;26.80;44.60
7218;DHT22;3650;53.580;10.094;2022-08-16T11:32:20;26.80;45.10
7218;DHT22;3650;53.580;10.094;2022-08-16T11:34:46;26.70;46.00
7218;DHT22;3650;53.580;10.094;2022-08-16T11:37:13;26.70;46.40
7218;DHT22;3650;53.580;10.094;2022-08-16T11:39:41;26.70;46.90
7218;DHT22;3650;53.580;10.094;2022-08-16T11:42:08;26.60;47.10
7218;DHT22;3650;53.580;10.094;2022-08-16T11:44:35;26.60;47.70
7218;DHT22;3650;53.580;10.094;2022-08-16T11:47:02;26.50;50.50
7218;DHT22;3650;53.580;10.094;2022-08-16T11:49:29;26.50;50.60
7218;DHT22;3650;53.580;10.094;2022-08-16T11:51:56;26.40;51.10
7218;DHT22;3650;53.580;10.094;2022-08-16T11:54:23;26.40;54.80
7218;DHT22;3650;53.580;10.094;2022-08-16T11:56:51;26.30;56.40
7218;DHT22;3650;53.580;10.094;2022-08-16T11:59:18;26.30;56.30
7218;DHT22;3650;53.580;10.094;2022-08-16T12:01:45;26.20;57.40
7218;DHT22;3650;53.580;10.094;2022-08-16T12:04:11;26.20;60.60
7218;DHT22;3650;53.580;10.094;2022-08-16T12:06:38;26.10;60.60
7218;DHT22;3650;53.580;10.094;2022-08-16T12:09:05;26.10;60.30
7218;DHT22;3650;53.580;10.094;2022-08-16T12:11:32;26.10;62.00
7218;DHT22;3650;53.580;10.094;2022-08-16T12:14:02;26.00;61.30
7218;DHT22;3650;53.580;10.094;2022-08-16T12:16:29;25.90;63.60
7218;DHT22;3650;53.580;10.094;2022-08-16T12:18:55;25.90;63.60
7218;DHT22;3650;53.580;10.094;2022-08-16T12:21:22;25.80;63.60
7218;DHT22;3650;53.580;10.094;2022-08-16T12:23:49;25.80;64.80
7218;DHT22;3650;53.580;10.094;2022-08-16T12:26:16;25.80;65.50
7218;DHT22;3650;53.580;10.094;2022-08-16T12:28:43;25.70;67.30
7218;DHT22;3650;53.580;10.094;2022-08-16T12:31:11;25.70;67.10
7218;DHT22;3650;53.580;10.094;2022-08-16T12:33:38;25.70;67.20
7218;DHT22;3650;53.580;10.094;2022-08-16T12:36:09;25.70;67.30
7218;DHT22;3650;53.580;10.094;2022-08-16T12:38:36;25.70;68.40
7218;DHT22;3650;53.580;10.094;2022-08-16T12:41:03;25.70;69.40
7218;DHT22;3650;53.580;10.094;2022-08-16T12:43:29;25.70;71.80
7218;DHT22;3650;53.580;10.094;2022-08-16T12:45:56;25.80;79.80
7218;DHT22;3650;53.580;10.094;2022-08-16T12:48:27;25.90;82.50
7218;DHT22;3650;53.580;10.094;2022-08-16T12:51:15;26.00;76.70
7218;DHT22;3650;53.580;10.094;2022-08-16T12:53:42;26.00;70.70
7218;DHT22;3650;53.580;10.094;2022-08-16T12:56:11;26.10;70.90
7218;DHT22;3650;53.580;10.094;2022-08-16T12:58:38;26.20;65.40
7218;DHT22;3650;53.580;10.094;2022-08-16T13:01:08;26.20;62.30
7218;DHT22;3650;53.580;10.094;2022-08-16T13:03:36;26.30;62.90
7218;DHT22;3650;53.580;10.094;2022-08-16T13:06:03;26.30;65.60
7218;DHT22;3650;53.580;10.094;2022-08-16T13:08:40;26.40;66.80
7218;DHT22;3650;53.580;10.094;2022-08-16T13:11:08;26.40;66.90
7218;DHT22;3650;53.580;10.094;2022-08-16T13:13:35;26.50;76.10
7218;DHT22;3650;53.580;10.094;2022-08-16T13:16:04;26.50;72.00
7218;DHT22;3650;53.580;10.094;2022-08-16T13:18:32;26.60;77.00
7218;DHT22;3650;53.580;10.094;2022-08-16T13:21:02;26.70;60.30
7218;DHT22;3650;53.580;10.094;2022-08-16T13:23:29;26.70;56.90
7218;DHT22;3650;53.580;10.094;2022-08-16T13:25:57;26.80;55.20
7218;DHT22;3650;53.580;10.094;2022-08-16T13:28:24;26.80;57.00
7218;DHT22;3650;53.580;10.094;2022-08-16T13:30:53;26.90;56.70
7218;DHT22;3650;53.580;10.094;2022-08-16T13:33:22;26.90;56.20
7218;DHT22;3650;53.580;10.094;2022-08-16T13:35:51;27.00;53.70
7218;DHT22;3650;53.580;10.094;2022-08-16T13:38:20;27.10;53.30
7218;DHT22;3650;53.580;10.094;2022-08-16T13:40:47;27.10;49.50
7218;DHT22;3650;53.580;10.094;2022-08-16T13:43:15;27.20;48.70
7218;DHT22;3650;53.580;10.094;2022-08-16T13:45:41;27.20;50.30
7218;DHT22;3650;53.580;10.094;2022-08-16T13:48:08;27.20;48.70
7218;DHT22;3650;53.580;10.094;2022-08-16T13:50:37;27.10;49.50
7218;DHT22;3650;53.580;10.094;2022-08-16T13:53:04;27.10;49.00
7218;DHT22;3650;53.580;10.094;2022-08-16T13:55:32;27.10;48.90
7218;DHT22;3650;53.580;10.094;2022-08-16T13:57:59;27.00;48.30
7218;DHT22;3650;53.580;10.094;2022-08-16T14:00:26;27.10;48.20
7218;DHT22;3650;53.580;10.094;2022-08-16T14:02:52;27.10;48.70
7218;DHT22;3650;53.580;10.094;2022-08-16T14:05:19;27.00;47.90
7218;DHT22;3650;53.580;10.094;2022-08-16T14:07:46;27.00;44.30
7218;DHT22;3650;53.580;10.094;2022-08-16T14:10:13;27.00;45.10
7218;DHT22;3650;53.580;10.094;2022-08-16T14:12:41;27.10;42.90
7218;DHT22;3650;53.580;10.094;2022-08-16T14:15:13;27.10;42.20
7218;DHT22;3650;53.580;10.094;2022-08-16T14:17:42;27.10;45.30
7218;DHT22;3650;53.580;10.094;2022-08-16T14:20:09;27.10;45.20
7218;DHT22;3650;53.580;10.094;2022-08-16T14:22:40;27.10;45.30
7218;DHT22;3650;53.580;10.094;2022-08-16T14:25:18;27.10;46.20
7218;DHT22;3650;53.580;10.094;2022-08-16T14:27:47;27.10;43.60
7218;DHT22;3650;53.580;10.094;2022-08-16T14:30:16;27.10;44.80
7218;DHT22;3650;53.580;10.094;2022-08-16T14:32:44;27.10;45.60
7218;DHT22;3650;53.580;10.094;2022-08-16T14:35:14;27.10;43.00
7218;DHT22;3650;53.580;10.094;2022-08-16T14:37:41;27.10;40.90
7218;DHT22;3650;53.580;10.094;2022-08-16T14:40:11;27.10;41.40
7218;DHT22;3650;53.580;10.094;2022-08-16T14:42:38;27.10;43.20
7218;DHT22;3650;53.580;10.094;2022-08-16T14:45:08;27.10;41.20
7218;DHT22;3650;53.580;10.094;2022-08-16T14:47:35;27.10;41.50
7218;DHT22;3650;53.580;10.094;2022-08-16T14:50:03;27.10;45.20
7218;DHT22;3650;53.580;10.094;2022-08-16T14:52:30;27.00;42.00
7218;DHT22;3650;53.580;10.094;2022-08-16T14:54:57;27.00;44.30
7218;DHT22;3650;53.580;10.094;2022-08-16T14:57:24;27.00;41.10
7218;DHT22;3650;53.580;10.094;2022-08-16T14:59:51;27.00;42.70
7218;DHT22;3650;53.580;10.094;2022-08-16T15:02:22;27.00;43.00
7218;DHT22;3650;53.580;10.094;2022-08-16T15:04:50;27.00;42.40
7218;DHT22;3650;53.580;10.094;2022-08-16T15:07:18;27.00;41.10
7218;DHT22;3650;53.580;10.094;2022-08-16T15:09:45;27.10;40.00
7218;DHT22;3650;53.580;10.094;2022-08-16T15:12:14;27.10;38.60
7218;DHT22;3650;53.580;10.094;2022-08-16T15:14:42;27.10;39.80
7218;DHT22;3650;53.580;10.094;2022-08-16T15:17:09;27.10;37.80
7218;DHT22;3650;53.580;10.094;2022-08-16T15:19:40;27.20;37.00
7218;DHT22;3650;53.580;10.094;2022-08-16T15:22:09;27.20;37.90
7218;DHT22;3650;53.580;10.094;2022-08-16T15:24:46;27.30;38.30
7218;DHT22;3650;53.580;10.094;2022-08-16T15:27:13;27.40;38.80
7218;DHT22;3650;53.580;10.094;2022-08-16T15:29:40;27.40;36.10
7218;DHT22;3650;53.580;10.094;2022-08-16T15:32:07;27.40;35.80
7218;DHT22;3650;53.580;10.094;2022-08-16T15:34:34;27.40;35.90
7218;DHT22;3650;53.580;10.094;2022-08-16T15:37:02;27.40;34.20
7218;DHT22;3650;53.580;10.094;2022-08-16T15:39:29;27.40;34.00
7218;DHT22;3650;53.580;10.094;2022-08-16T15:42:02;27.40;34.40
7218;DHT22;3650;53.580;10.094;2022-08-16T15:44:32;27.40;35.80
7218;DHT22;3650;53.580;10.094;2022-08-16T15:47:03;27.30;34.80
7218;DHT22;3650;53.580;10.094;2022-08-16T15:49:31;27.20;35.30